Port Bannatyne, United Kingdom
Current Conditions -  °F | °C
As of 8:50 PM on Tuesday 27 Jan 2015 (Local Time) from EGPF Reporting Station
Drizzle Drizzle  
Wind Chill: 35°   Ceiling: 1100
Heat Index: 43°   Visibility: 2.5mi
Dew Point: 43°   Wind: 16mph
Humidity: 100%   Direction: 210°SSW
Pressure: 29.85"   Gusts: NA
Location:  55.86°N, 5.07°W
Report Text: EGPF 272050Z 21014KT 4000 DZ SCT008 BKN011 06/06 Q1011 REDZ
Loading
Personal Weather Stations






























Interactive Weather Map New forecast layout! Learn more

10-Day Weather Forecast

Advertisements
Track Severe Weather on mobile